createdAt,value
2019-02-27T00:01:58.686Z,16.87
2019-02-27T00:04:27.890Z,22.67
2019-02-27T00:06:57.074Z,20.40
2019-02-27T00:09:26.369Z,14.58
2019-02-27T00:12:01.004Z,18.07
2019-02-27T00:14:31.258Z,16.97
2019-02-27T00:17:00.979Z,21.90
2019-02-27T00:19:31.489Z,19.00
2019-02-27T00:22:01.748Z,20.27
2019-02-27T00:24:30.921Z,18.50
2019-02-27T00:27:00.139Z,16.47
2019-02-27T00:29:29.609Z,16.90
2019-02-27T00:31:59.324Z,14.40
2019-02-27T00:34:32.811Z,14.57
2019-02-27T00:36:59.359Z,14.95
2019-02-27T00:39:30.872Z,16.77
2019-02-27T00:42:00.532Z,11.87
2019-02-27T00:44:34.034Z,16.90
2019-02-27T00:47:00.571Z,13.67
2019-02-27T00:49:32.145Z,13.60
2019-02-27T00:52:01.397Z,13.07
2019-02-27T00:54:31.504Z,18.77
2019-02-27T00:57:01.567Z,16.45
2019-02-27T00:59:32.867Z,19.27
2019-02-27T01:02:01.625Z,19.60
2019-02-27T01:04:34.923Z,17.45
2019-02-27T01:07:01.800Z,18.17
2019-02-27T01:09:31.394Z,14.60
2019-02-27T01:12:01.181Z,13.73
2019-02-27T01:14:30.655Z,21.03
2019-02-27T01:16:59.831Z,17.60
2019-02-27T01:19:29.445Z,16.87
2019-02-27T01:21:58.598Z,15.43
2019-02-27T01:24:27.796Z,16.00
2019-02-27T01:26:57.199Z,16.90
2019-02-27T01:29:26.387Z,20.80
2019-02-27T01:31:57.680Z,16.93
2019-02-27T01:34:26.428Z,21.67
2019-02-27T01:36:58.037Z,16.73
2019-02-27T01:39:26.790Z,15.00
2019-02-27T01:41:57.912Z,15.13
2019-02-27T01:44:27.549Z,17.13
2019-02-27T01:47:01.812Z,14.93
2019-02-27T01:49:27.560Z,15.60
2019-02-27T01:51:59.220Z,17.13
2019-02-27T01:54:27.684Z,18.83
2019-02-27T01:56:56.850Z,15.80
2019-02-27T01:59:26.431Z,21.48
2019-02-27T02:01:55.923Z,17.17
2019-02-27T02:04:25.139Z,16.40
2019-02-27T02:06:54.874Z,16.57
2019-02-27T02:09:34.714Z,15.77
2019-02-27T02:12:08.645Z,17.07
2019-02-27T02:15:19.229Z,13.57
2019-02-27T02:18:38.875Z,14.17
2019-02-27T02:21:36.115Z,17.50
2019-02-27T02:24:45.332Z,19.73
2019-02-27T02:27:59.563Z,17.10
2019-02-27T02:30:49.576Z,11.83
2019-02-27T02:33:29.083Z,14.40
2019-02-27T02:36:13.411Z,19.17
2019-02-27T02:39:04.038Z,14.67
2019-02-27T02:42:03.053Z,17.07
2019-02-27T02:45:03.731Z,14.40
2019-02-27T02:48:02.766Z,12.43
2019-02-27T02:51:02.896Z,15.10
2019-02-27T02:54:37.925Z,16.33
2019-02-27T02:57:40.479Z,14.83
2019-02-27T03:00:37.821Z,12.90
2019-02-27T03:03:40.738Z,15.27
2019-02-27T03:06:56.832Z,14.87
2019-02-27T03:09:59.996Z,12.73
2019-02-27T03:13:12.324Z,15.10
2019-02-27T03:15:49.996Z,12.07
2019-02-27T03:18:37.420Z,18.03
2019-02-27T03:21:44.193Z,19.17
2019-02-27T03:24:52.396Z,15.33
2019-02-27T03:27:52.743Z,12.70
2019-02-27T03:31:00.171Z,13.43
2019-02-27T03:34:10.816Z,13.50
2019-02-27T03:36:59.172Z,17.47
2019-02-27T03:40:11.778Z,13.20
2019-02-27T03:43:11.463Z,13.48
2019-02-27T03:45:57.024Z,12.87
2019-02-27T03:48:50.603Z,16.83
2019-02-27T03:51:49.606Z,13.60
2019-02-27T03:54:48.386Z,14.87
2019-02-27T03:57:30.724Z,13.10
2019-02-27T04:00:25.069Z,12.47
2019-02-27T04:03:23.942Z,15.00
2019-02-27T04:06:22.065Z,15.67
2019-02-27T04:09:01.195Z,15.53
2019-02-27T04:11:30.751Z,12.87
2019-02-27T04:14:04.663Z,12.07
2019-02-27T04:16:31.876Z,19.40
2019-02-27T04:19:04.379Z,17.73
2019-02-27T04:21:32.439Z,14.20
2019-02-27T04:24:01.726Z,14.87
2019-02-27T04:26:30.796Z,14.63
2019-02-27T04:29:04.051Z,15.97
2019-02-27T04:31:31.515Z,13.57
2019-02-27T04:34:01.326Z,11.47
2019-02-27T04:36:30.721Z,11.03
2019-02-27T04:39:02.463Z,12.40
2019-02-27T04:41:31.031Z,11.60
2019-02-27T04:44:00.229Z,12.10
2019-02-27T04:46:29.803Z,14.07
2019-02-27T04:49:03.908Z,15.33
2019-02-27T04:51:30.126Z,10.57
2019-02-27T04:54:06.323Z,14.30
2019-02-27T04:56:32.887Z,13.50
2019-02-27T04:59:02.363Z,11.23
2019-02-27T05:01:31.507Z,14.07
2019-02-27T05:04:01.587Z,14.28
2019-02-27T05:06:31.702Z,14.87
2019-02-27T05:09:01.072Z,14.65
2019-02-27T05:11:30.335Z,12.78
2019-02-27T05:13:59.546Z,13.60
2019-02-27T05:16:28.702Z,17.57
2019-02-27T05:18:58.037Z,13.85
2019-02-27T05:21:27.732Z,13.08
2019-02-27T05:23:57.270Z,15.58
2019-02-27T05:26:27.335Z,14.40
2019-02-27T05:28:57.011Z,17.63
2019-02-27T05:31:26.334Z,15.50
2019-02-27T05:33:55.519Z,13.37
2019-02-27T05:36:24.791Z,15.53
2019-02-27T05:38:55.038Z,16.40
2019-02-27T05:41:24.455Z,12.43
2019-02-27T05:43:53.944Z,15.17
2019-02-27T05:46:23.506Z,13.08
2019-02-27T05:48:53.340Z,12.43
2019-02-27T05:51:24.581Z,14.80
2019-02-27T05:53:56.151Z,19.25
2019-02-27T05:56:24.913Z,15.23
2019-02-27T05:58:56.845Z,14.97
2019-02-27T06:01:26.442Z,12.80
2019-02-27T06:03:55.920Z,15.83
2019-02-27T06:06:25.150Z,17.10
2019-02-27T06:08:54.392Z,11.07
2019-02-27T06:11:23.911Z,12.97
2019-02-27T06:13:53.038Z,18.33
2019-02-27T06:16:22.602Z,13.90
2019-02-27T06:18:56.058Z,13.23
2019-02-27T06:21:23.034Z,16.60
2019-02-27T06:23:52.747Z,77.53
2019-02-27T06:26:21.870Z,73.73
2019-02-27T06:28:51.343Z,55.90
2019-02-27T06:31:20.789Z,25.60
2019-02-27T06:33:49.970Z,14.90
2019-02-27T06:36:19.121Z,19.05
2019-02-27T06:38:49.071Z,17.37
2019-02-27T06:41:18.274Z,14.80
2019-02-27T06:43:48.190Z,17.50
2019-02-27T06:46:19.910Z,18.57
2019-02-27T06:48:51.071Z,15.13
2019-02-27T06:51:20.393Z,15.60
2019-02-27T06:53:49.842Z,15.50
2019-02-27T06:56:18.955Z,15.20
2019-02-27T06:58:50.126Z,19.07
2019-02-27T07:01:19.019Z,12.23
2019-02-27T07:03:48.288Z,17.07
2019-02-27T07:06:21.279Z,17.83
2019-02-27T07:08:48.729Z,13.97
2019-02-27T07:11:17.873Z,13.33
2019-02-27T07:13:47.097Z,17.90
2019-02-27T07:16:16.251Z,15.15
2019-02-27T07:18:45.438Z,15.20
2019-02-27T07:21:14.559Z,18.63
2019-02-27T07:23:43.835Z,14.47
2019-02-27T07:26:15.795Z,19.23
2019-02-27T07:28:44.551Z,19.07
2019-02-27T07:31:17.497Z,26.00
2019-02-27T07:33:44.732Z,18.60
2019-02-27T07:36:13.944Z,14.60
2019-02-27T07:38:43.387Z,16.60
2019-02-27T07:41:15.114Z,16.67
2019-02-27T07:43:43.732Z,18.10
2019-02-27T07:46:12.942Z,17.65
2019-02-27T07:48:42.333Z,20.40
2019-02-27T07:51:11.820Z,20.50
2019-02-27T07:53:40.998Z,17.50
2019-02-27T07:56:10.119Z,17.23
2019-02-27T07:58:39.665Z,13.47
2019-02-27T08:01:08.896Z,17.03
2019-02-27T08:03:38.191Z,20.37
2019-02-27T08:06:07.373Z,22.77
2019-02-27T08:08:36.845Z,18.50
2019-02-27T08:11:06.014Z,18.80
2019-02-27T08:13:35.186Z,18.23
2019-02-27T08:16:05.415Z,20.13
2019-02-27T08:18:37.646Z,19.03
2019-02-27T08:21:05.484Z,23.43
2019-02-27T08:23:34.648Z,22.98
2019-02-27T08:26:05.162Z,18.37
2019-02-27T08:28:35.123Z,20.20
2019-02-27T08:31:04.370Z,20.30
2019-02-27T08:33:33.664Z,19.97
2019-02-27T08:36:02.789Z,16.63
2019-02-27T08:38:31.946Z,26.23
2019-02-27T08:41:01.060Z,19.93
2019-02-27T08:43:31.577Z,18.75
2019-02-27T08:46:02.452Z,18.60
2019-02-27T08:48:31.891Z,17.40
2019-02-27T08:51:05.705Z,16.30
2019-02-27T08:53:32.001Z,20.13
2019-02-27T08:56:01.464Z,17.20
2019-02-27T08:58:32.861Z,18.60
2019-02-27T09:01:02.011Z,15.20
2019-02-27T09:03:31.211Z,22.23
2019-02-27T09:06:00.769Z,23.70
2019-02-27T09:08:31.441Z,19.27
2019-02-27T09:11:05.475Z,18.40
2019-02-27T09:13:31.712Z,20.40
2019-02-27T09:16:00.910Z,19.80
2019-02-27T09:18:33.306Z,18.40
2019-02-27T09:21:01.362Z,21.37
2019-02-27T09:23:30.541Z,22.33
2019-02-27T09:26:02.550Z,21.40
2019-02-27T09:28:30.655Z,16.83
2019-02-27T09:31:04.233Z,26.47
2019-02-27T09:33:38.500Z,22.47
2019-02-27T09:36:02.732Z,17.17
2019-02-27T09:38:32.265Z,20.50
2019-02-27T09:41:02.096Z,20.80
2019-02-27T09:43:32.265Z,16.33
2019-02-27T09:46:01.616Z,20.73
2019-02-27T09:48:31.162Z,15.50
2019-02-27T09:51:01.764Z,23.03
2019-02-27T09:53:30.931Z,18.63
2019-02-27T09:56:00.111Z,16.00
2019-02-27T09:58:29.291Z,17.17
2019-02-27T10:01:03.143Z,16.07
2019-02-27T10:03:32.930Z,17.65
2019-02-27T10:06:02.277Z,18.50
2019-02-27T10:08:31.444Z,15.98
2019-02-27T10:11:00.690Z,16.07
2019-02-27T10:13:29.879Z,17.60
2019-02-27T10:16:01.352Z,13.90
2019-02-27T10:18:30.693Z,18.35
2019-02-27T10:20:59.956Z,21.60
2019-02-27T10:23:31.201Z,15.97
2019-02-27T10:26:00.686Z,14.60
2019-02-27T10:28:29.905Z,19.73
2019-02-27T10:30:59.426Z,16.07
2019-02-27T10:33:28.627Z,16.40
2019-02-27T10:35:57.844Z,20.70
2019-02-27T10:38:27.087Z,18.93
2019-02-27T10:40:56.232Z,19.90
2019-02-27T10:43:25.504Z,15.93
2019-02-27T10:45:54.958Z,15.90
2019-02-27T10:48:24.199Z,15.60
2019-02-27T10:50:53.412Z,13.63
2019-02-27T10:53:27.138Z,16.50
2019-02-27T10:55:53.831Z,15.60
2019-02-27T10:58:24.616Z,14.73
2019-02-27T11:00:54.043Z,12.60
2019-02-27T11:03:27.055Z,11.53
2019-02-27T11:05:55.693Z,13.63
2019-02-27T11:08:28.882Z,9.90
2019-02-27T11:10:55.852Z,13.63
2019-02-27T11:13:25.354Z,12.70
2019-02-27T11:15:54.745Z,11.13
2019-02-27T11:18:23.990Z,14.90
2019-02-27T11:20:55.690Z,13.25
2019-02-27T11:23:24.936Z,11.77
2019-02-27T11:25:56.930Z,11.20
2019-02-27T11:28:27.735Z,11.67
2019-02-27T11:30:56.964Z,9.83
2019-02-27T11:33:26.173Z,11.50
2019-02-27T11:35:55.470Z,10.00
2019-02-27T11:38:25.520Z,12.67
2019-02-27T11:40:54.843Z,13.15
2019-02-27T11:43:23.962Z,12.33
2019-02-27T11:45:57.491Z,12.28
2019-02-27T11:48:24.043Z,9.30
2019-02-27T11:50:53.948Z,11.97
2019-02-27T11:53:23.311Z,11.45
2019-02-27T11:55:52.612Z,11.07
2019-02-27T11:58:21.930Z,10.77
2019-02-27T12:00:51.266Z,10.70
2019-02-27T12:03:20.752Z,10.18
2019-02-27T12:05:49.992Z,10.10
2019-02-27T12:08:19.206Z,12.53
2019-02-27T12:10:48.739Z,9.75
2019-02-27T12:13:21.364Z,10.77
2019-02-27T12:15:51.251Z,22.50
2019-02-27T12:18:20.387Z,11.00
2019-02-27T12:20:53.239Z,8.53
2019-02-27T12:23:20.499Z,10.27
2019-02-27T12:25:49.936Z,9.43
2019-02-27T12:28:19.238Z,11.80
2019-02-27T12:30:48.828Z,8.48
2019-02-27T12:33:20.065Z,11.73
2019-02-27T12:35:49.259Z,11.35
2019-02-27T12:38:18.419Z,8.80
2019-02-27T12:40:47.547Z,9.37
2019-02-27T12:43:18.396Z,10.50
2019-02-27T12:45:48.207Z,10.15
2019-02-27T12:48:17.555Z,12.37
2019-02-27T12:50:46.731Z,11.40
2019-02-27T12:53:20.709Z,10.57
2019-02-27T12:55:46.934Z,11.10
2019-02-27T12:58:16.081Z,13.15
2019-02-27T13:00:45.374Z,10.48
2019-02-27T13:03:14.623Z,12.58
2019-02-27T13:05:43.891Z,11.30
2019-02-27T13:08:13.067Z,12.67
2019-02-27T13:10:42.236Z,10.80
2019-02-27T13:13:11.655Z,11.07
2019-02-27T13:15:41.098Z,11.23
2019-02-27T13:18:11.161Z,10.40
2019-02-27T13:20:43.053Z,14.00
2019-02-27T13:23:11.410Z,13.70
2019-02-27T13:25:40.575Z,12.20
2019-02-27T13:28:09.716Z,14.00
2019-02-27T13:30:41.613Z,11.90
2019-02-27T13:33:10.091Z,11.80
2019-02-27T13:35:39.694Z,10.83
2019-02-27T13:38:08.882Z,13.43
2019-02-27T13:40:38.804Z,12.93
2019-02-27T13:43:08.387Z,12.40
2019-02-27T13:45:37.816Z,12.73
2019-02-27T13:48:07.701Z,14.90
2019-02-27T13:50:36.869Z,15.90
2019-02-27T13:53:06.074Z,14.10
2019-02-27T13:55:36.373Z,15.43
2019-02-27T13:58:05.729Z,16.10
2019-02-27T14:00:35.182Z,13.90
2019-02-27T14:03:04.891Z,16.50
2019-02-27T14:05:35.972Z,13.17
2019-02-27T14:08:05.147Z,14.20
2019-02-27T14:10:34.968Z,14.80
2019-02-27T14:13:08.764Z,14.63
2019-02-27T14:15:35.233Z,12.70
2019-02-27T14:18:04.915Z,13.37
2019-02-27T14:20:34.116Z,12.50
2019-02-27T14:23:03.434Z,11.70
2019-02-27T14:25:33.574Z,13.20
2019-02-27T14:28:03.011Z,13.50
2019-02-27T14:30:41.315Z,16.60
2019-02-27T14:33:11.128Z,14.90
2019-02-27T14:35:41.307Z,11.48
2019-02-27T14:38:10.763Z,9.57
2019-02-27T14:40:41.176Z,12.53
2019-02-27T14:43:10.614Z,15.10
2019-02-27T14:45:40.894Z,12.50
2019-02-27T14:48:10.413Z,16.67
2019-02-27T14:50:40.038Z,13.23
2019-02-27T14:53:09.486Z,13.62
2019-02-27T14:55:38.649Z,13.67
2019-02-27T14:58:07.939Z,14.50
2019-02-27T15:00:40.861Z,10.20
2019-02-27T15:03:08.306Z,11.13
2019-02-27T15:05:42.881Z,15.33
2019-02-27T15:08:08.836Z,8.70
2019-02-27T15:10:41.088Z,10.43
2019-02-27T15:13:09.688Z,14.27
2019-02-27T15:15:43.435Z,11.47
2019-02-27T15:18:09.804Z,12.93
2019-02-27T15:20:41.026Z,10.67
2019-02-27T15:23:10.471Z,8.87
2019-02-27T15:25:43.176Z,11.87
2019-02-27T15:28:10.922Z,13.78
2019-02-27T15:30:40.103Z,8.70
2019-02-27T15:33:09.315Z,11.83
2019-02-27T15:35:38.544Z,8.00
2019-02-27T15:38:11.227Z,9.30
2019-02-27T15:40:39.320Z,13.80
2019-02-27T15:43:11.463Z,10.43
2019-02-27T15:45:47.429Z,11.53
2019-02-27T15:48:11.395Z,11.70
2019-02-27T15:50:40.639Z,12.82
2019-02-27T15:53:14.606Z,12.33
2019-02-27T15:55:40.923Z,9.50
2019-02-27T15:58:10.075Z,15.57
2019-02-27T16:00:39.673Z,11.67
2019-02-27T16:03:11.834Z,15.33
2019-02-27T16:05:40.225Z,12.00
2019-02-27T16:08:09.561Z,13.00
2019-02-27T16:10:42.592Z,9.23
2019-02-27T16:13:09.885Z,15.40
2019-02-27T16:15:39.161Z,12.83
2019-02-27T16:18:08.491Z,11.33
2019-02-27T16:20:37.791Z,14.25
2019-02-27T16:23:07.170Z,16.60
2019-02-27T16:25:36.534Z,10.23
2019-02-27T16:28:05.944Z,10.87
2019-02-27T16:30:37.068Z,13.05
2019-02-27T16:33:07.095Z,11.43
2019-02-27T16:35:41.584Z,9.17
2019-02-27T16:38:07.561Z,15.00
2019-02-27T16:40:36.784Z,11.33
2019-02-27T16:43:06.674Z,12.10
2019-02-27T16:45:37.122Z,12.33
2019-02-27T16:48:07.502Z,13.53
2019-02-27T16:50:36.694Z,11.20
2019-02-27T16:53:06.155Z,10.23
2019-02-27T16:55:37.005Z,11.47
2019-02-27T16:58:06.405Z,16.20
2019-02-27T17:00:36.320Z,13.55
2019-02-27T17:03:05.598Z,11.53
2019-02-27T17:05:35.070Z,14.77
2019-02-27T17:08:04.322Z,14.50
2019-02-27T17:10:33.547Z,14.75
2019-02-27T17:13:02.742Z,11.73
2019-02-27T17:15:35.975Z,14.20
2019-02-27T17:18:02.936Z,13.63
2019-02-27T17:20:32.281Z,14.03
2019-02-27T17:23:07.577Z,16.40
2019-02-27T17:25:34.690Z,13.60
2019-02-27T17:28:04.232Z,13.60
2019-02-27T17:30:37.785Z,15.70
2019-02-27T17:33:05.421Z,13.10
2019-02-27T17:35:36.252Z,16.17
2019-02-27T17:38:05.466Z,15.87
2019-02-27T17:40:37.782Z,13.53
2019-02-27T17:43:07.288Z,15.47
2019-02-27T17:45:36.622Z,14.60
2019-02-27T17:48:05.831Z,13.87
2019-02-27T17:50:35.038Z,14.37
2019-02-27T17:53:04.559Z,17.73
2019-02-27T17:55:33.816Z,13.80
2019-02-27T17:58:03.280Z,22.33
2019-02-27T18:00:38.418Z,15.07
2019-02-27T18:03:07.650Z,15.50
2019-02-27T18:05:36.957Z,14.73
2019-02-27T18:08:06.267Z,15.63
2019-02-27T18:10:38.366Z,15.23
2019-02-27T18:13:08.131Z,16.77
2019-02-27T18:15:37.718Z,13.57
2019-02-27T18:18:10.426Z,16.77
2019-02-27T18:20:38.495Z,18.63
2019-02-27T18:23:07.691Z,15.33
2019-02-27T18:25:41.367Z,15.90
2019-02-27T18:28:10.403Z,19.50
2019-02-27T18:30:39.639Z,15.60
2019-02-27T18:33:13.615Z,15.33
2019-02-27T18:35:40.442Z,9.80
2019-02-27T18:38:09.763Z,14.53
2019-02-27T18:40:39.245Z,15.50
2019-02-27T18:43:17.307Z,15.13
2019-02-27T18:45:48.170Z,17.13
2019-02-27T18:48:18.777Z,15.17
2019-02-27T18:50:48.196Z,16.00
2019-02-27T18:53:18.287Z,14.07
2019-02-27T18:55:47.541Z,15.67
2019-02-27T18:58:18.199Z,15.18
2019-02-27T19:00:47.739Z,16.20
2019-02-27T19:03:26.452Z,16.63
2019-02-27T19:05:55.776Z,13.23
2019-02-27T19:08:25.283Z,15.00
2019-02-27T19:10:56.266Z,14.87
2019-02-27T19:13:25.722Z,19.87
2019-02-27T19:15:55.289Z,23.77
2019-02-27T19:18:25.152Z,19.07
2019-02-27T19:20:56.207Z,19.45
2019-02-27T19:23:25.981Z,16.25
2019-02-27T19:25:55.131Z,17.33
2019-02-27T19:28:24.854Z,14.13
2019-02-27T19:30:55.174Z,14.03
2019-02-27T19:33:24.825Z,14.15
2019-02-27T19:35:57.507Z,19.95
2019-02-27T19:38:27.531Z,11.08
2019-02-27T19:40:57.076Z,17.03
2019-02-27T19:43:26.424Z,15.15
2019-02-27T19:45:55.714Z,17.43
2019-02-27T19:48:26.207Z,18.23
2019-02-27T19:50:56.400Z,15.05
2019-02-27T19:53:25.810Z,15.83
2019-02-27T19:56:00.610Z,18.50
2019-02-27T19:58:29.210Z,18.13
2019-02-27T20:01:18.163Z,21.23
2019-02-27T20:03:52.129Z,19.40
2019-02-27T20:06:21.628Z,33.30
2019-02-27T20:08:50.874Z,27.07
2019-02-27T20:11:23.652Z,18.10
2019-02-27T20:13:54.024Z,16.40
2019-02-27T20:16:24.203Z,13.70
2019-02-27T20:18:55.094Z,14.97
2019-02-27T20:21:25.115Z,14.60
2019-02-27T20:23:54.459Z,16.33
2019-02-27T20:26:24.610Z,17.50
2019-02-27T20:28:54.052Z,19.55
2019-02-27T20:31:23.708Z,17.48
2019-02-27T20:33:53.888Z,21.10
2019-02-27T20:36:23.495Z,15.20
2019-02-27T20:38:52.887Z,20.57
2019-02-27T20:41:30.813Z,17.60
2019-02-27T20:44:04.334Z,25.23
2019-02-27T20:46:35.278Z,23.97
2019-02-27T20:49:05.306Z,43.40
2019-02-27T20:51:39.784Z,42.50
2019-02-27T20:54:05.872Z,64.97
2019-02-27T20:56:35.998Z,69.60
2019-02-27T20:59:06.228Z,62.70
2019-02-27T21:01:35.511Z,53.10
2019-02-27T21:04:05.509Z,37.80
2019-02-27T21:06:36.713Z,26.30
2019-02-27T21:09:11.808Z,35.67
2019-02-27T21:11:39.725Z,28.70
2019-02-27T21:14:09.488Z,37.80
2019-02-27T21:16:45.780Z,48.33
2019-02-27T21:19:15.395Z,56.35
2019-02-27T21:21:46.301Z,104.53
2019-02-27T21:24:15.810Z,132.60
2019-02-27T21:26:45.733Z,99.40
2019-02-27T21:29:15.099Z,66.63
2019-02-27T21:31:44.320Z,24.00
2019-02-27T21:34:13.471Z,18.00
2019-02-27T21:36:45.556Z,21.90
2019-02-27T21:39:16.660Z,14.97
2019-02-27T21:41:46.286Z,16.80
2019-02-27T21:44:25.284Z,18.80
2019-02-27T21:46:47.495Z,15.50
2019-02-27T21:49:17.051Z,19.27
2019-02-27T21:51:48.198Z,22.40
2019-02-27T21:54:17.476Z,19.70
2019-02-27T21:56:51.798Z,18.42
2019-02-27T21:59:20.214Z,16.47
2019-02-27T22:01:50.213Z,25.30
2019-02-27T22:04:20.105Z,19.20
2019-02-27T22:06:50.398Z,18.65
2019-02-27T22:09:21.172Z,15.93
2019-02-27T22:11:50.329Z,19.50
2019-02-27T22:14:21.694Z,26.87
2019-02-27T22:16:52.834Z,21.10
2019-02-27T22:19:22.343Z,19.90
2019-02-27T22:21:51.679Z,18.57
2019-02-27T22:24:21.570Z,21.23
2019-02-27T22:26:52.112Z,22.23
2019-02-27T22:29:21.715Z,21.20
2019-02-27T22:31:59.315Z,20.97
2019-02-27T22:34:28.932Z,19.80
2019-02-27T22:37:02.123Z,19.30
2019-02-27T22:39:33.294Z,16.25
2019-02-27T22:42:05.212Z,20.97
2019-02-27T22:44:34.962Z,20.43
2019-02-27T22:47:04.188Z,16.60
2019-02-27T22:49:33.325Z,20.50
2019-02-27T22:52:02.727Z,18.37
2019-02-27T22:54:35.730Z,19.43
2019-02-27T22:57:02.957Z,28.80
2019-02-27T22:59:34.025Z,20.17
2019-02-27T23:02:03.395Z,19.70
2019-02-27T23:04:34.156Z,22.93
2019-02-27T23:07:03.794Z,18.90
2019-02-27T23:09:45.771Z,21.23
2019-02-27T23:12:15.967Z,18.35
2019-02-27T23:14:46.596Z,16.97
2019-02-27T23:17:16.373Z,19.60
2019-02-27T23:19:46.941Z,17.87
2019-02-27T23:22:16.215Z,16.80
2019-02-27T23:24:50.052Z,23.23
2019-02-27T23:27:19.733Z,17.10
2019-02-27T23:29:49.193Z,20.50
2019-02-27T23:32:18.875Z,19.57
2019-02-27T23:34:48.054Z,20.80
2019-02-27T23:37:22.518Z,18.87
2019-02-27T23:39:52.087Z,25.63
2019-02-27T23:42:21.462Z,23.43
2019-02-27T23:44:50.728Z,24.60
2019-02-27T23:47:35.383Z,22.57
2019-02-27T23:50:11.031Z,19.60
2019-02-27T23:52:41.479Z,22.27
2019-02-27T23:55:10.920Z,18.50
2019-02-27T23:57:47.106Z,18.50
